createdAt,value
2023-03-25T00:00:21.082Z,1.03
2023-03-25T00:02:24.300Z,0.90
2023-03-25T00:04:27.546Z,0.73
2023-03-25T00:06:30.307Z,0.83
2023-03-25T00:08:33.234Z,1.13
2023-03-25T00:10:36.115Z,0.90
2023-03-25T00:12:39.496Z,0.83
2023-03-25T00:14:43.618Z,0.80
2023-03-25T00:16:48.906Z,0.70
2023-03-25T00:18:51.633Z,0.80
2023-03-25T00:20:54.347Z,0.83
2023-03-25T00:22:57.047Z,1.43
2023-03-25T00:24:59.701Z,0.80
2023-03-25T00:27:03.421Z,0.80
2023-03-25T00:29:06.249Z,1.00
2023-03-25T00:31:12.729Z,0.70
2023-03-25T00:33:18.341Z,0.80
2023-03-25T00:35:21.597Z,0.80
2023-03-25T00:37:25.633Z,0.70
2023-03-25T00:39:28.331Z,0.70
2023-03-25T00:41:31.218Z,0.73
2023-03-25T00:43:33.863Z,0.80
2023-03-25T00:45:36.542Z,0.77
2023-03-25T00:47:41.588Z,0.80
2023-03-25T00:49:44.744Z,0.60
2023-03-25T00:51:52.899Z,0.80
2023-03-25T00:54:00.259Z,0.67
2023-03-25T00:56:03.645Z,0.80
2023-03-25T00:58:06.324Z,0.70
2023-03-25T01:00:11.009Z,0.70
2023-03-25T01:02:13.693Z,0.80
2023-03-25T01:04:18.203Z,0.90
2023-03-25T01:06:21.711Z,0.87
2023-03-25T01:08:25.603Z,0.60
2023-03-25T01:10:28.469Z,0.80
2023-03-25T01:12:31.696Z,0.70
2023-03-25T01:14:36.704Z,0.80
2023-03-25T01:16:39.510Z,0.70
2023-03-25T01:18:42.688Z,0.60
2023-03-25T01:20:47.042Z,0.63
2023-03-25T01:22:49.703Z,0.70
2023-03-25T01:24:52.431Z,0.60
2023-03-25T01:26:55.265Z,0.63
2023-03-25T01:28:58.438Z,0.60
2023-03-25T01:31:01.859Z,0.70
2023-03-25T01:33:04.760Z,0.80
2023-03-25T01:35:08.213Z,0.97
2023-03-25T01:37:13.105Z,0.90
2023-03-25T01:39:18.612Z,0.50
2023-03-25T01:41:21.344Z,0.83
2023-03-25T01:43:24.713Z,0.70
2023-03-25T01:45:29.093Z,0.67
2023-03-25T01:47:32.851Z,0.77
2023-03-25T01:49:39.022Z,0.67
2023-03-25T01:51:45.708Z,0.60
2023-03-25T01:53:49.699Z,0.50
2023-03-25T01:55:54.593Z,0.77
2023-03-25T01:57:59.574Z,0.73
2023-03-25T02:00:03.406Z,0.50
2023-03-25T02:02:06.610Z,0.77
2023-03-25T02:04:12.115Z,0.70
2023-03-25T02:06:17.030Z,0.63
2023-03-25T02:08:20.964Z,0.60
2023-03-25T02:10:25.768Z,0.60
2023-03-25T02:12:28.574Z,0.57
2023-03-25T02:14:33.735Z,0.53
2023-03-25T02:16:42.751Z,0.60
2023-03-25T02:18:49.709Z,0.53
2023-03-25T02:21:11.951Z,0.73
2023-03-25T02:23:29.326Z,0.63
2023-03-25T02:25:54.889Z,0.60
2023-03-25T02:28:01.549Z,0.53
2023-03-25T02:30:26.254Z,0.70
2023-03-25T02:32:39.332Z,0.63
2023-03-25T02:34:48.823Z,0.60
2023-03-25T02:37:01.543Z,0.70
2023-03-25T02:39:05.838Z,0.70
2023-03-25T02:41:13.862Z,0.50
2023-03-25T02:43:19.679Z,0.50
2023-03-25T02:45:25.294Z,0.70
2023-03-25T03:01:34.990Z,0.70
2023-03-25T03:03:38.119Z,0.50
2023-03-25T03:05:42.787Z,0.57
2023-03-25T03:07:45.532Z,0.63
2023-03-25T03:09:51.055Z,0.50
2023-03-25T03:11:59.553Z,0.50
2023-03-25T03:14:11.741Z,0.60
2023-03-25T03:16:17.966Z,0.50
2023-03-25T03:18:34.127Z,0.60
2023-03-25T03:20:40.857Z,0.50
2023-03-25T03:22:44.418Z,0.50
2023-03-25T03:24:48.376Z,0.50
2023-03-25T03:26:54.843Z,0.50
2023-03-25T03:29:00.997Z,0.60
2023-03-25T03:31:06.871Z,0.50
2023-03-25T03:33:13.386Z,0.50
2023-03-25T03:35:19.827Z,0.60
2023-03-25T03:37:23.715Z,0.50
2023-03-25T03:39:31.047Z,0.53
2023-03-25T03:41:35.219Z,0.50
2023-03-25T03:43:40.502Z,0.40
2023-03-25T03:45:44.430Z,0.40
2023-03-25T03:47:48.446Z,0.50
2023-03-25T03:49:52.818Z,0.40
2023-03-25T03:51:58.916Z,0.50
2023-03-25T03:54:02.549Z,0.50
2023-03-25T03:56:07.095Z,0.90
2023-03-25T03:58:15.306Z,0.50
2023-03-25T04:00:19.699Z,0.60
2023-03-25T04:02:27.310Z,0.60
2023-03-25T04:04:30.295Z,0.50
2023-03-25T04:06:35.603Z,0.50
2023-03-25T04:08:44.216Z,0.50
2023-03-25T04:10:52.824Z,0.60
2023-03-25T04:12:55.836Z,0.50
2023-03-25T04:15:01.508Z,0.67
2023-03-25T04:17:05.573Z,0.50
2023-03-25T04:19:09.342Z,0.50
2023-03-25T04:21:15.448Z,0.50
2023-03-25T04:23:21.214Z,0.50
2023-03-25T04:25:25.832Z,0.60
2023-03-25T04:27:29.974Z,0.50
2023-03-25T04:29:34.023Z,0.40
2023-03-25T04:31:37.814Z,0.47
2023-03-25T04:33:40.740Z,0.40
2023-03-25T04:35:43.529Z,0.50
2023-03-25T04:37:48.939Z,0.43
2023-03-25T04:39:51.966Z,0.50
2023-03-25T04:41:56.667Z,0.43
2023-03-25T04:43:59.383Z,0.47
2023-03-25T04:46:02.653Z,0.40
2023-03-25T04:48:06.127Z,0.50
2023-03-25T04:50:10.826Z,0.50
2023-03-25T04:52:13.553Z,0.40
2023-03-25T04:54:18.203Z,0.40
2023-03-25T04:56:21.116Z,0.40
2023-03-25T04:58:25.062Z,0.40
2023-03-25T05:00:28.336Z,0.57
2023-03-25T05:02:31.097Z,0.60
2023-03-25T05:04:34.060Z,0.40
2023-03-25T05:06:38.374Z,0.40
2023-03-25T05:08:41.643Z,0.40
2023-03-25T05:10:44.327Z,0.50
2023-03-25T05:12:47.036Z,0.50
2023-03-25T05:14:51.300Z,0.50
2023-03-25T05:16:59.273Z,0.50
2023-03-25T05:19:03.468Z,0.60
2023-03-25T05:21:06.452Z,0.40
2023-03-25T05:23:12.143Z,0.40
2023-03-25T05:25:15.781Z,0.63
2023-03-25T05:27:20.269Z,0.50
2023-03-25T05:29:22.982Z,0.47
2023-03-25T05:31:27.015Z,0.63
2023-03-25T05:33:30.089Z,0.53
2023-03-25T05:35:32.910Z,0.50
2023-03-25T05:37:35.630Z,0.40
2023-03-25T05:39:38.790Z,0.50
2023-03-25T05:41:42.328Z,0.40
2023-03-25T05:43:47.599Z,0.50
2023-03-25T05:45:51.218Z,0.70
2023-03-25T05:47:55.440Z,0.60
2023-03-25T05:50:00.314Z,0.40
2023-03-25T05:52:03.485Z,0.50
2023-03-25T05:54:11.697Z,0.53
2023-03-25T05:56:14.780Z,0.50
2023-03-25T05:58:18.177Z,0.47
2023-03-25T06:00:21.367Z,0.50
2023-03-25T06:02:26.844Z,0.50
2023-03-25T06:04:33.961Z,0.60
2023-03-25T06:06:37.171Z,0.50
2023-03-25T06:08:40.069Z,0.40
2023-03-25T06:10:45.646Z,0.40
2023-03-25T06:12:48.537Z,0.50
2023-03-25T06:14:54.514Z,0.40
2023-03-25T06:16:57.213Z,0.50
2023-03-25T06:19:00.676Z,0.43
2023-03-25T06:21:04.789Z,0.50
2023-03-25T06:23:07.945Z,0.40
2023-03-25T06:25:11.589Z,0.40
2023-03-25T06:27:16.340Z,0.40
2023-03-25T06:29:19.026Z,0.50
2023-03-25T06:31:22.767Z,0.40
2023-03-25T06:33:42.492Z,0.60
2023-03-25T06:35:50.024Z,0.40
2023-03-25T06:37:55.422Z,0.40
2023-03-25T06:39:59.830Z,0.40
2023-03-25T06:42:02.604Z,0.40
2023-03-25T06:44:05.818Z,0.53
2023-03-25T06:46:08.598Z,0.50
2023-03-25T06:48:11.381Z,0.40
2023-03-25T06:50:14.498Z,0.53
2023-03-25T06:52:17.230Z,0.40
2023-03-25T06:54:21.234Z,0.50
2023-03-25T06:56:23.957Z,0.40
2023-03-25T06:58:34.531Z,0.50
2023-03-25T07:00:37.418Z,0.50
2023-03-25T07:02:42.690Z,0.40
2023-03-25T07:04:45.447Z,0.50
2023-03-25T07:06:48.629Z,0.50
2023-03-25T07:08:51.387Z,0.50
2023-03-25T07:10:55.494Z,0.40
2023-03-25T07:12:58.170Z,0.50
2023-03-25T07:15:01.171Z,0.40
2023-03-25T07:17:03.872Z,0.40
2023-03-25T07:19:06.572Z,0.50
2023-03-25T07:21:09.311Z,0.40
2023-03-25T07:23:15.233Z,0.43
2023-03-25T07:25:20.580Z,0.50
2023-03-25T07:27:24.968Z,0.50
2023-03-25T07:29:28.081Z,0.50
2023-03-25T07:31:30.949Z,0.40
2023-03-25T07:33:33.717Z,0.40
2023-03-25T07:35:36.607Z,0.47
2023-03-25T07:37:39.649Z,0.50
2023-03-25T07:39:42.442Z,0.50
2023-03-25T07:41:46.494Z,0.50
2023-03-25T07:43:50.497Z,0.50
2023-03-25T07:45:54.813Z,0.40
2023-03-25T07:47:57.550Z,0.40
2023-03-25T07:50:00.319Z,0.60
2023-03-25T07:52:02.986Z,0.40
2023-03-25T07:54:06.501Z,0.40
2023-03-25T07:56:10.420Z,0.60
2023-03-25T07:58:13.123Z,0.40
2023-03-25T08:00:17.663Z,0.40
2023-03-25T08:02:20.549Z,0.40
2023-03-25T08:04:23.276Z,0.50
2023-03-25T08:06:26.707Z,0.40
2023-03-25T08:08:30.678Z,0.47
2023-03-25T08:10:35.092Z,0.50
2023-03-25T08:12:37.792Z,0.40
2023-03-25T08:14:40.615Z,0.50
2023-03-25T08:16:47.714Z,0.60
2023-03-25T08:18:52.995Z,0.50
2023-03-25T08:20:55.742Z,0.40
2023-03-25T08:22:58.925Z,0.60
2023-03-25T08:25:02.416Z,0.50
2023-03-25T08:27:16.436Z,0.40
2023-03-25T08:29:20.161Z,0.40
2023-03-25T08:31:23.087Z,0.50
2023-03-25T08:33:34.292Z,0.73
2023-03-25T08:35:38.481Z,0.60
2023-03-25T08:37:41.272Z,1.00
2023-03-25T08:39:45.146Z,0.77
2023-03-25T08:41:48.311Z,0.90
2023-03-25T08:43:51.243Z,0.80
2023-03-25T08:45:56.668Z,0.80
2023-03-25T08:47:59.449Z,0.80
2023-03-25T08:50:04.055Z,1.10
2023-03-25T08:52:08.576Z,1.33
2023-03-25T08:54:11.356Z,0.90
2023-03-25T08:56:14.227Z,1.30
2023-03-25T08:58:16.948Z,1.00
2023-03-25T09:00:24.306Z,1.40
2023-03-25T09:02:27.798Z,1.40
2023-03-25T09:04:33.327Z,1.80
2023-03-25T09:06:47.612Z,1.70
2023-03-25T09:08:52.385Z,1.30
2023-03-25T09:10:56.728Z,1.33
2023-03-25T09:12:59.505Z,1.20
2023-03-25T09:15:02.241Z,1.00
2023-03-25T09:17:06.481Z,1.20
2023-03-25T09:19:13.351Z,1.00
2023-03-25T09:21:16.239Z,1.33
2023-03-25T09:23:20.180Z,1.10
2023-03-25T09:25:23.495Z,1.30
2023-03-25T09:27:26.302Z,0.90
2023-03-25T09:29:29.570Z,0.80
2023-03-25T09:31:38.006Z,1.20
2023-03-25T09:33:40.903Z,0.90
2023-03-25T09:35:43.819Z,1.10
2023-03-25T09:37:52.108Z,1.13
2023-03-25T09:39:59.258Z,0.90
2023-03-25T09:42:12.780Z,1.10
2023-03-25T09:44:19.596Z,0.80
2023-03-25T09:46:23.211Z,0.80
2023-03-25T09:48:28.755Z,0.97
2023-03-25T09:50:32.270Z,0.70
2023-03-25T09:52:40.234Z,1.30
2023-03-25T09:54:45.397Z,0.90
2023-03-25T09:56:49.779Z,0.87
2023-03-25T09:58:53.108Z,1.00
2023-03-25T10:00:58.045Z,0.73
2023-03-25T10:03:08.813Z,0.63
2023-03-25T10:05:18.577Z,0.70
2023-03-25T10:07:32.071Z,0.90
2023-03-25T10:09:40.613Z,0.87
2023-03-25T10:11:46.861Z,0.63
2023-03-25T10:13:53.196Z,1.00
2023-03-25T10:15:58.132Z,1.30
2023-03-25T10:18:08.449Z,1.07
2023-03-25T10:20:14.735Z,1.17
2023-03-25T10:22:18.399Z,1.20
2023-03-25T10:24:25.482Z,1.20
2023-03-25T10:26:30.012Z,0.77
2023-03-25T10:28:34.664Z,1.10
2023-03-25T10:30:41.588Z,0.80
2023-03-25T10:32:45.555Z,1.13
2023-03-25T10:34:53.449Z,1.40
2023-03-25T10:36:58.102Z,1.20
2023-03-25T10:39:02.029Z,1.10
2023-03-25T10:41:17.878Z,1.50
2023-03-25T10:43:24.744Z,1.10
2023-03-25T10:45:27.495Z,1.00
2023-03-25T10:47:33.285Z,1.10
2023-03-25T10:49:37.083Z,1.07
2023-03-25T10:51:39.808Z,1.03
2023-03-25T10:53:42.587Z,1.10
2023-03-25T10:55:46.032Z,1.10
2023-03-25T10:57:48.748Z,1.00
2023-03-25T10:59:58.160Z,0.90
2023-03-25T11:02:05.829Z,0.90
2023-03-25T11:04:11.442Z,1.27
2023-03-25T11:06:22.399Z,1.10
2023-03-25T11:08:25.788Z,0.90
2023-03-25T11:10:30.143Z,1.10
2023-03-25T11:12:42.621Z,0.93
2023-03-25T11:14:46.844Z,0.97
2023-03-25T11:16:53.491Z,0.80
2023-03-25T11:18:56.349Z,1.33
2023-03-25T11:21:02.441Z,0.90
2023-03-25T11:23:09.274Z,1.13
2023-03-25T11:25:15.411Z,0.90
2023-03-25T11:27:19.085Z,1.00
2023-03-25T11:29:22.839Z,1.10
2023-03-25T11:31:28.358Z,0.90
2023-03-25T11:33:31.639Z,1.03
2023-03-25T11:35:38.826Z,1.00
2023-03-25T11:37:46.832Z,0.80
2023-03-25T11:39:50.943Z,1.17
2023-03-25T11:41:53.983Z,1.00
2023-03-25T11:43:57.050Z,1.33
2023-03-25T11:46:00.313Z,1.10
2023-03-25T11:48:10.065Z,1.50
2023-03-25T11:50:20.325Z,2.10
2023-03-25T11:52:25.274Z,2.17
2023-03-25T11:54:29.461Z,2.17
2023-03-25T11:56:34.480Z,1.53
2023-03-25T11:58:38.394Z,1.70
2023-03-25T12:00:53.670Z,1.90
2023-03-25T12:03:02.066Z,1.83
2023-03-25T12:05:12.208Z,1.63
2023-03-25T12:07:15.040Z,1.60
2023-03-25T12:09:18.106Z,1.33
2023-03-25T12:11:27.658Z,1.27
2023-03-25T12:13:36.638Z,1.23
2023-03-25T12:15:41.689Z,1.20
2023-03-25T12:17:52.311Z,1.33
2023-03-25T12:19:59.802Z,1.07
2023-03-25T12:22:10.199Z,1.20
2023-03-25T12:24:21.587Z,1.30
2023-03-25T12:26:27.132Z,1.10
2023-03-25T12:28:55.990Z,1.07
2023-03-25T12:31:11.230Z,1.00
2023-03-25T12:33:23.031Z,1.20
2023-03-25T12:35:31.375Z,1.23
2023-03-25T12:37:37.592Z,1.10
2023-03-25T12:39:45.892Z,1.03
2023-03-25T12:41:52.582Z,0.93
2023-03-25T12:44:02.938Z,1.10
2023-03-25T12:46:14.318Z,0.80
2023-03-25T12:48:24.771Z,1.00
2023-03-25T12:50:34.965Z,1.10
2023-03-25T12:52:43.062Z,0.90
2023-03-25T12:54:54.009Z,1.00
2023-03-25T12:57:00.512Z,1.20
2023-03-25T12:59:22.367Z,1.23
2023-03-25T13:01:28.305Z,1.20
2023-03-25T13:03:48.229Z,1.00
2023-03-25T13:05:53.392Z,0.90
2023-03-25T13:07:56.806Z,0.90
2023-03-25T13:10:04.771Z,0.93
2023-03-25T13:12:11.253Z,0.80
2023-03-25T13:14:18.384Z,1.10
2023-03-25T13:16:23.670Z,0.90
2023-03-25T13:18:27.168Z,0.80
2023-03-25T13:20:31.335Z,0.83
2023-03-25T13:22:36.250Z,0.80
2023-03-25T13:24:40.491Z,1.10
2023-03-25T13:26:44.929Z,0.77
2023-03-25T13:28:48.681Z,0.70
2023-03-25T13:30:52.904Z,0.80
2023-03-25T13:32:57.741Z,0.90
2023-03-25T13:35:03.648Z,0.80
2023-03-25T13:37:12.044Z,0.70
2023-03-25T13:39:17.327Z,0.80
2023-03-25T13:41:22.722Z,0.70
2023-03-25T13:43:29.693Z,1.10
2023-03-25T13:45:40.961Z,0.90
2023-03-25T13:47:45.768Z,0.70
2023-03-25T13:49:50.303Z,0.77
2023-03-25T13:51:53.414Z,0.60
2023-03-25T13:53:57.917Z,1.00
2023-03-25T13:56:10.583Z,0.80
2023-03-25T13:58:20.206Z,0.80
2023-03-25T14:00:29.671Z,0.90
2023-03-25T14:02:42.047Z,1.07
2023-03-25T14:04:55.401Z,1.00
2023-03-25T14:07:07.126Z,0.77
2023-03-25T14:09:32.656Z,1.50
2023-03-25T14:11:37.173Z,0.97
2023-03-25T14:13:41.128Z,0.77
2023-03-25T14:15:46.952Z,0.80
2023-03-25T14:17:51.059Z,0.80
2023-03-25T14:19:55.540Z,0.80
2023-03-25T14:21:59.328Z,0.90
2023-03-25T14:24:04.087Z,0.90
2023-03-25T14:26:10.146Z,0.90
2023-03-25T14:28:19.039Z,1.00
2023-03-25T14:30:23.219Z,0.80
2023-03-25T14:32:32.589Z,0.93
2023-03-25T14:34:40.763Z,0.90
2023-03-25T14:37:10.445Z,1.30
2023-03-25T14:39:35.774Z,0.90
2023-03-25T14:41:57.536Z,1.03
2023-03-25T14:44:12.169Z,0.97
2023-03-25T14:46:19.410Z,0.90
2023-03-25T14:48:25.740Z,1.03
2023-03-25T14:50:32.948Z,0.90
2023-03-25T14:52:40.113Z,1.07
2023-03-25T14:54:45.607Z,1.30
2023-03-25T14:56:54.634Z,1.10
2023-03-25T14:59:01.455Z,1.10
2023-03-25T15:01:06.038Z,1.10
2023-03-25T15:03:12.065Z,1.57
2023-03-25T15:05:17.792Z,1.70
2023-03-25T15:07:21.822Z,1.43
2023-03-25T15:09:25.042Z,1.20
2023-03-25T15:11:33.634Z,1.30
2023-03-25T15:13:37.805Z,1.20
2023-03-25T15:15:57.461Z,1.43
2023-03-25T15:18:00.924Z,1.37
2023-03-25T15:20:15.711Z,1.00
2023-03-25T15:22:21.540Z,1.30
2023-03-25T15:24:27.531Z,1.37
2023-03-25T15:26:33.357Z,1.10
2023-03-25T15:28:50.758Z,1.30
2023-03-25T15:31:01.225Z,1.20
2023-03-25T15:33:14.280Z,1.20
2023-03-25T15:35:33.602Z,1.20
2023-03-25T15:38:02.011Z,1.10
2023-03-25T15:40:12.265Z,1.30
2023-03-25T15:42:40.708Z,1.63
2023-03-25T15:44:51.401Z,1.87
2023-03-25T15:47:05.520Z,1.37
2023-03-25T15:49:18.404Z,1.40
2023-03-25T15:51:32.226Z,1.50
2023-03-25T15:53:51.231Z,1.23
2023-03-25T15:55:54.788Z,1.23
2023-03-25T15:58:01.460Z,1.10
2023-03-25T16:00:09.243Z,1.00
2023-03-25T16:02:17.569Z,1.47
2023-03-25T16:04:22.433Z,2.10
2023-03-25T16:06:26.559Z,1.30
2023-03-25T16:08:31.969Z,2.40
2023-03-25T16:10:36.588Z,1.73
2023-03-25T16:12:39.642Z,2.50
2023-03-25T16:14:45.260Z,3.40
2023-03-25T16:16:49.109Z,2.87
2023-03-25T16:18:54.707Z,2.80
2023-03-25T16:20:58.343Z,2.60
2023-03-25T16:23:01.103Z,2.77
2023-03-25T16:25:05.678Z,2.90
2023-03-25T16:27:11.708Z,2.43
2023-03-25T16:29:18.509Z,2.80
2023-03-25T16:31:36.301Z,2.50
2023-03-25T16:33:39.554Z,2.00
2023-03-25T16:35:43.529Z,2.40
2023-03-25T16:37:46.428Z,2.20
2023-03-25T16:39:52.448Z,1.73
2023-03-25T16:42:01.706Z,1.97
2023-03-25T16:44:04.347Z,1.77
2023-03-25T16:46:08.479Z,1.90
2023-03-25T16:48:15.435Z,1.87
2023-03-25T16:50:19.852Z,2.17
2023-03-25T16:52:25.130Z,1.60
2023-03-25T16:54:33.479Z,1.70
2023-03-25T16:56:38.379Z,1.77
2023-03-25T16:58:58.139Z,2.20
2023-03-25T17:01:05.884Z,1.90
2023-03-25T17:03:21.640Z,1.70
2023-03-25T17:05:26.625Z,1.90
2023-03-25T17:07:29.712Z,1.53
2023-03-25T17:09:35.006Z,1.40
2023-03-25T17:11:40.186Z,1.63
2023-03-25T17:13:43.635Z,1.73
2023-03-25T17:15:49.269Z,1.50
2023-03-25T17:17:54.922Z,1.67
2023-03-25T17:20:01.771Z,1.37
2023-03-25T17:22:06.722Z,1.53
2023-03-25T17:24:22.419Z,1.30
2023-03-25T17:26:34.076Z,1.40
2023-03-25T17:28:39.290Z,1.50
2023-03-25T17:30:42.971Z,1.30
2023-03-25T17:32:46.602Z,1.60
2023-03-25T17:34:59.838Z,2.50
2023-03-25T17:37:03.932Z,3.00
2023-03-25T17:39:08.536Z,2.80
2023-03-25T17:41:12.831Z,2.37
2023-03-25T17:43:19.167Z,2.00
2023-03-25T17:45:22.872Z,2.40
2023-03-25T17:47:26.189Z,2.47
2023-03-25T17:49:29.046Z,2.40
2023-03-25T17:51:33.678Z,1.67
2023-03-25T17:53:36.835Z,1.80
2023-03-25T17:55:39.884Z,1.70
2023-03-25T17:57:42.625Z,1.70
2023-03-25T17:59:45.698Z,2.17
2023-03-25T18:01:50.297Z,1.73
2023-03-25T18:03:53.229Z,1.60
2023-03-25T18:05:58.207Z,2.23
2023-03-25T18:08:05.653Z,1.67
2023-03-25T18:10:15.477Z,1.73
2023-03-25T18:12:18.190Z,1.87
2023-03-25T18:14:20.924Z,1.90
2023-03-25T18:16:25.072Z,1.67
2023-03-25T18:18:28.429Z,1.63
2023-03-25T18:20:33.009Z,1.10
2023-03-25T18:22:36.615Z,1.67
2023-03-25T18:24:40.600Z,1.20
2023-03-25T18:26:43.791Z,1.40
2023-03-25T18:28:46.988Z,1.60
2023-03-25T18:30:54.889Z,1.30
2023-03-25T18:32:57.999Z,1.43
2023-03-25T18:35:02.686Z,1.30
2023-03-25T18:37:05.415Z,1.20
2023-03-25T18:39:10.194Z,1.50
2023-03-25T18:41:14.361Z,1.37
2023-03-25T18:43:17.595Z,1.50
2023-03-25T18:45:20.720Z,1.33
2023-03-25T18:47:24.257Z,1.43
2023-03-25T18:49:27.824Z,1.20
2023-03-25T18:51:31.160Z,1.30
2023-03-25T18:53:34.384Z,1.30
2023-03-25T18:55:37.284Z,1.30
2023-03-25T18:57:42.366Z,1.50
2023-03-25T18:59:45.181Z,1.67
2023-03-25T19:01:48.408Z,1.20
2023-03-25T19:03:51.582Z,1.30
2023-03-25T19:05:55.848Z,1.40
2023-03-25T19:08:01.428Z,1.50
2023-03-25T19:10:04.847Z,1.47
2023-03-25T19:12:07.775Z,1.20
2023-03-25T19:14:11.746Z,1.70
2023-03-25T19:16:14.668Z,1.63
2023-03-25T19:18:18.599Z,1.50
2023-03-25T19:20:23.543Z,1.37
2023-03-25T19:22:29.543Z,1.27
2023-03-25T19:24:32.232Z,1.23
2023-03-25T19:26:35.240Z,1.30
2023-03-25T19:28:38.243Z,1.33
2023-03-25T19:30:43.954Z,1.33
2023-03-25T19:32:48.045Z,1.30
2023-03-25T19:34:56.620Z,1.20
2023-03-25T19:37:02.865Z,1.40
2023-03-25T19:39:06.647Z,1.47
2023-03-25T19:41:10.509Z,1.33
2023-03-25T19:43:13.624Z,1.20
2023-03-25T19:45:16.907Z,1.63
2023-03-25T19:47:20.913Z,1.33
2023-03-25T19:49:38.768Z,1.37
2023-03-25T19:51:45.124Z,1.43
2023-03-25T19:53:50.719Z,1.40
2023-03-25T19:55:53.887Z,1.40
2023-03-25T19:57:57.345Z,1.40
2023-03-25T20:00:00.044Z,1.40
2023-03-25T20:02:02.793Z,1.40
2023-03-25T20:04:06.950Z,1.20
2023-03-25T20:06:10.082Z,1.40
2023-03-25T20:08:12.998Z,1.43
2023-03-25T20:10:19.918Z,0.93
2023-03-25T20:12:23.230Z,1.30
2023-03-25T20:14:26.347Z,1.33
2023-03-25T20:16:30.788Z,1.30
2023-03-25T20:18:33.730Z,1.10
2023-03-25T20:20:37.774Z,1.17
2023-03-25T20:22:41.273Z,1.27
2023-03-25T20:24:44.161Z,1.30
2023-03-25T20:26:46.943Z,1.40
2023-03-25T20:28:49.749Z,1.10
2023-03-25T20:30:54.329Z,1.30
2023-03-25T20:32:58.191Z,1.50
2023-03-25T20:35:00.982Z,1.40
2023-03-25T20:37:05.630Z,1.47
2023-03-25T20:39:08.708Z,1.10
2023-03-25T20:41:15.601Z,1.43
2023-03-25T20:43:21.928Z,1.27
2023-03-25T20:45:29.277Z,1.30
2023-03-25T20:47:32.346Z,1.20
2023-03-25T20:49:38.704Z,1.30
2023-03-25T20:51:41.774Z,1.20
2023-03-25T20:53:46.309Z,1.40
2023-03-25T20:55:49.956Z,1.20
2023-03-25T20:57:54.326Z,1.27
2023-03-25T20:59:58.034Z,0.97
2023-03-25T21:02:01.493Z,1.20
2023-03-25T21:04:06.322Z,1.13
2023-03-25T21:06:22.768Z,1.13
2023-03-25T21:08:30.361Z,1.10
2023-03-25T21:10:34.516Z,1.33
2023-03-25T21:12:43.851Z,1.70
2023-03-25T21:14:47.579Z,1.37
2023-03-25T21:16:50.333Z,0.80
2023-03-25T21:18:56.601Z,1.10
2023-03-25T21:21:00.460Z,0.80
2023-03-25T21:23:05.800Z,1.23
2023-03-25T21:25:09.558Z,1.00
2023-03-25T21:27:17.509Z,1.20
2023-03-25T21:29:20.943Z,0.80
2023-03-25T21:31:24.115Z,1.17
2023-03-25T21:33:27.027Z,1.20
2023-03-25T21:35:29.748Z,1.10
2023-03-25T21:37:37.769Z,0.93
2023-03-25T21:39:40.601Z,1.27
2023-03-25T21:41:43.283Z,0.90
2023-03-25T21:43:47.569Z,0.80
2023-03-25T21:45:51.453Z,1.00
2023-03-25T21:47:55.079Z,1.17
2023-03-25T21:49:57.827Z,1.23
2023-03-25T21:52:02.336Z,0.80
2023-03-25T21:54:06.498Z,0.90
2023-03-25T21:56:12.596Z,1.10
2023-03-25T21:58:16.401Z,1.03
2023-03-25T22:00:25.155Z,0.80
2023-03-25T22:02:29.735Z,1.20
2023-03-25T22:04:33.641Z,0.93
2023-03-25T22:06:37.233Z,0.90
2023-03-25T22:08:40.402Z,0.90
2023-03-25T22:10:43.660Z,0.90
2023-03-25T22:12:47.705Z,0.80
2023-03-25T22:14:56.918Z,1.03
2023-03-25T22:17:01.750Z,1.07
2023-03-25T22:19:04.668Z,0.93
2023-03-25T22:21:08.855Z,1.03
2023-03-25T22:23:14.796Z,0.90
2023-03-25T22:25:17.669Z,0.90
2023-03-25T22:27:20.465Z,1.00
2023-03-25T22:29:23.249Z,1.00
2023-03-25T22:31:30.949Z,0.70
2023-03-25T22:33:36.521Z,0.83
2023-03-25T22:35:41.200Z,1.13
2023-03-25T22:37:46.318Z,0.70
2023-03-25T22:39:51.256Z,0.90
2023-03-25T22:41:54.603Z,1.00
2023-03-25T22:43:57.676Z,0.80
2023-03-25T22:46:02.664Z,0.80
2023-03-25T22:48:05.871Z,0.90
2023-03-25T22:50:10.856Z,1.10
2023-03-25T22:52:13.564Z,0.80
2023-03-25T22:54:16.721Z,0.70
2023-03-25T22:56:20.211Z,0.83
2023-03-25T22:58:23.148Z,0.83
2023-03-25T23:00:26.838Z,0.70
2023-03-25T23:02:29.593Z,0.90
2023-03-25T23:04:32.478Z,0.70
2023-03-25T23:06:36.704Z,0.90
2023-03-25T23:08:40.892Z,0.70
2023-03-25T23:10:44.729Z,0.80
2023-03-25T23:12:47.657Z,0.70
2023-03-25T23:14:51.880Z,0.70
2023-03-25T23:16:54.950Z,0.90
2023-03-25T23:18:57.968Z,0.93
2023-03-25T23:21:01.247Z,0.60
2023-03-25T23:23:07.497Z,0.90
2023-03-25T23:25:10.828Z,0.60
2023-03-25T23:27:13.720Z,0.80
2023-03-25T23:29:16.687Z,0.70
2023-03-25T23:31:20.746Z,0.70
2023-03-25T23:33:23.585Z,0.57
2023-03-25T23:35:26.429Z,0.70
2023-03-25T23:37:29.920Z,0.70
2023-03-25T23:39:34.901Z,0.60
2023-03-25T23:41:39.283Z,0.80
2023-03-25T23:43:42.428Z,0.70
2023-03-25T23:45:46.203Z,0.73
2023-03-25T23:47:49.267Z,0.87
2023-03-25T23:49:52.016Z,0.80
2023-03-25T23:51:54.715Z,0.90
2023-03-25T23:53:57.857Z,0.77
2023-03-25T23:56:01.839Z,0.73
2023-03-25T23:58:04.537Z,0.60
